createdAt,value
2022-11-05T00:00:08.846Z,5.70
2022-11-05T00:02:54.155Z,4.95
2022-11-05T00:05:40.801Z,6.25
2022-11-05T00:08:26.431Z,6.00
2022-11-05T00:10:54.274Z,6.60
2022-11-05T00:13:39.671Z,7.70
2022-11-05T00:16:36.388Z,6.65
2022-11-05T00:19:10.235Z,7.47
2022-11-05T00:22:03.214Z,5.25
2022-11-05T00:24:48.569Z,8.75
2022-11-05T00:27:16.294Z,6.93
2022-11-05T00:29:44.049Z,5.85
2022-11-05T00:32:13.451Z,7.10
2022-11-05T00:34:41.143Z,6.95
2022-11-05T00:37:12.629Z,6.75
2022-11-05T00:39:40.334Z,7.28
2022-11-05T00:42:25.549Z,6.57
2022-11-05T00:45:02.158Z,9.98
2022-11-05T00:47:47.658Z,7.50
2022-11-05T00:50:15.509Z,6.57
2022-11-05T00:52:56.669Z,8.10
2022-11-05T00:55:28.513Z,7.53
2022-11-05T00:57:57.943Z,7.23
2022-11-05T01:00:27.177Z,7.15
2022-11-05T01:02:55.052Z,7.35
2022-11-05T01:05:22.751Z,9.63
2022-11-05T01:07:52.572Z,9.07
2022-11-05T01:10:20.398Z,8.10
2022-11-05T01:12:48.521Z,11.98
2022-11-05T01:15:16.624Z,9.68
2022-11-05T01:17:45.613Z,9.68
2022-11-05T01:20:13.644Z,10.40
2022-11-05T01:22:41.319Z,11.48
2022-11-05T01:25:11.455Z,9.75
2022-11-05T01:27:39.441Z,12.32
2022-11-05T01:30:09.632Z,10.23
2022-11-05T01:32:38.019Z,12.23
2022-11-05T01:35:12.070Z,12.82
2022-11-05T01:37:40.273Z,11.50
2022-11-05T01:40:11.630Z,13.88
2022-11-05T01:42:39.321Z,12.20
2022-11-05T01:45:15.312Z,14.43
2022-11-05T01:47:50.432Z,9.27
2022-11-05T01:50:39.091Z,12.07
2022-11-05T01:53:13.210Z,11.82
2022-11-05T01:55:47.108Z,11.48
2022-11-05T01:58:21.252Z,11.52
2022-11-05T02:00:49.870Z,11.57
2022-11-05T02:03:19.211Z,11.95
2022-11-05T02:05:51.547Z,11.13
2022-11-05T02:08:31.351Z,11.43
2022-11-05T02:11:00.543Z,9.82
2022-11-05T02:13:28.211Z,11.30
2022-11-05T02:16:03.899Z,11.85
2022-11-05T02:18:44.081Z,11.73
2022-11-05T02:21:29.824Z,12.63
2022-11-05T02:24:34.658Z,16.20
2022-11-05T02:27:19.964Z,10.75
2022-11-05T02:30:27.107Z,10.88
2022-11-05T02:33:23.111Z,10.52
2022-11-05T02:36:07.318Z,16.52
2022-11-05T02:38:44.003Z,12.25
2022-11-05T02:41:19.625Z,12.88
2022-11-05T02:44:00.207Z,11.60
2022-11-05T02:46:41.166Z,10.05
2022-11-05T02:49:18.883Z,11.38
2022-11-05T02:51:55.045Z,11.75
2022-11-05T02:54:33.299Z,11.65
2022-11-05T02:57:03.037Z,11.15
2022-11-05T02:59:34.528Z,12.70
2022-11-05T03:02:05.179Z,13.98
2022-11-05T03:04:33.273Z,11.13
2022-11-05T03:07:24.992Z,13.25
2022-11-05T03:10:16.095Z,15.15
2022-11-05T03:12:58.110Z,13.60
2022-11-05T03:15:42.231Z,13.47
2022-11-05T03:18:23.019Z,13.98
2022-11-05T03:20:57.929Z,10.88
2022-11-05T03:23:30.448Z,9.82
2022-11-05T03:26:06.989Z,11.98
2022-11-05T03:28:41.045Z,10.23
2022-11-05T03:31:09.902Z,13.07
2022-11-05T03:33:41.602Z,18.02
2022-11-05T03:36:16.158Z,14.10
2022-11-05T03:38:48.347Z,13.23
2022-11-05T03:41:21.020Z,15.55
2022-11-05T03:43:51.541Z,16.60
2022-11-05T03:46:25.699Z,18.15
2022-11-05T03:48:58.458Z,14.77
2022-11-05T03:51:33.581Z,13.23
2022-11-05T03:54:03.915Z,15.68
2022-11-05T03:56:37.007Z,13.93
2022-11-05T03:59:07.136Z,17.27
2022-11-05T04:01:37.061Z,14.73
2022-11-05T04:04:07.282Z,12.75
2022-11-05T04:06:52.726Z,15.85
2022-11-05T04:09:38.425Z,14.35
2022-11-05T04:12:27.317Z,17.67
2022-11-05T04:14:55.088Z,16.85
2022-11-05T04:17:21.929Z,17.63
2022-11-05T04:20:08.148Z,14.95
2022-11-05T04:23:02.915Z,13.63
2022-11-05T04:25:30.677Z,14.88
2022-11-05T04:28:01.895Z,13.80
2022-11-05T04:30:31.228Z,15.32
2022-11-05T04:33:05.758Z,14.02
2022-11-05T04:35:36.885Z,15.95
2022-11-05T04:38:05.691Z,13.48
2022-11-05T04:40:35.464Z,15.13
2022-11-05T04:43:03.458Z,13.90
2022-11-05T04:45:33.008Z,13.52
2022-11-05T04:48:00.945Z,16.30
2022-11-05T04:50:28.854Z,14.93
2022-11-05T04:52:58.115Z,14.68
2022-11-05T04:55:26.249Z,12.98
2022-11-05T04:57:55.585Z,14.88
2022-11-05T05:00:24.747Z,16.92
2022-11-05T05:02:52.744Z,13.70
2022-11-05T05:05:23.094Z,15.48
2022-11-05T05:07:51.136Z,14.80
2022-11-05T05:10:22.435Z,17.25
2022-11-05T05:12:50.212Z,20.02
2022-11-05T05:15:18.402Z,18.13
2022-11-05T05:17:51.468Z,17.05
2022-11-05T05:20:36.746Z,14.75
2022-11-05T05:23:04.916Z,18.08
2022-11-05T05:25:34.077Z,15.85
2022-11-05T05:28:04.188Z,14.65
2022-11-05T05:30:34.267Z,14.60
2022-11-05T05:33:04.103Z,14.98
2022-11-05T05:35:32.299Z,14.90
2022-11-05T05:38:02.741Z,14.77
2022-11-05T05:40:30.696Z,16.48
2022-11-05T05:42:59.895Z,13.50
2022-11-05T05:45:27.807Z,13.70
2022-11-05T05:48:06.388Z,12.30
2022-11-05T05:50:34.263Z,16.73
2022-11-05T05:53:02.165Z,17.23
2022-11-05T05:55:31.852Z,16.35
2022-11-05T05:58:02.182Z,16.95
2022-11-05T06:00:32.341Z,17.50
2022-11-05T06:03:00.419Z,17.83
2022-11-05T06:05:32.454Z,17.80
2022-11-05T06:08:00.429Z,16.05
2022-11-05T06:10:28.238Z,15.80
2022-11-05T06:12:56.179Z,12.43
2022-11-05T06:15:29.416Z,14.27
2022-11-05T06:17:59.775Z,15.05
2022-11-05T06:20:27.575Z,14.25
2022-11-05T06:22:56.014Z,10.88
2022-11-05T06:25:24.349Z,12.73
2022-11-05T06:27:52.306Z,10.20
2022-11-05T06:30:21.697Z,10.80
2022-11-05T06:32:51.132Z,8.80
2022-11-05T06:35:19.022Z,5.25
2022-11-05T06:37:49.020Z,6.25
2022-11-05T06:40:16.949Z,8.82
2022-11-05T06:42:44.813Z,7.57
2022-11-05T06:45:13.921Z,4.82
2022-11-05T06:47:44.299Z,5.93
2022-11-05T06:50:16.106Z,6.15
2022-11-05T06:52:46.231Z,4.23
2022-11-05T06:55:13.956Z,4.35
2022-11-05T06:57:43.160Z,7.57
2022-11-05T07:00:11.799Z,6.57
2022-11-05T07:02:40.851Z,6.72
2022-11-05T07:05:11.250Z,4.18
2022-11-05T07:07:40.702Z,5.68
2022-11-05T07:10:12.124Z,4.57
2022-11-05T07:12:41.184Z,4.22
2022-11-05T07:15:10.714Z,3.90
2022-11-05T07:17:39.888Z,2.88
2022-11-05T07:20:12.725Z,6.95
2022-11-05T07:22:41.913Z,6.15
2022-11-05T07:25:11.108Z,5.32
2022-11-05T07:27:41.395Z,4.03
2022-11-05T07:30:12.719Z,4.03
2022-11-05T07:32:40.844Z,5.72
2022-11-05T07:35:10.045Z,4.55
2022-11-05T07:37:45.276Z,3.42
2022-11-05T07:40:14.007Z,2.97
2022-11-05T07:42:43.555Z,4.18
2022-11-05T07:45:12.910Z,3.95
2022-11-05T07:47:46.202Z,4.65
2022-11-05T07:50:14.060Z,5.43
2022-11-05T07:52:41.899Z,4.38
2022-11-05T07:55:13.209Z,6.03
2022-11-05T07:57:47.469Z,4.25
2022-11-05T08:00:17.906Z,4.65
2022-11-05T08:02:45.899Z,4.97
2022-11-05T08:05:13.815Z,4.47
2022-11-05T08:07:41.677Z,5.90
2022-11-05T08:10:14.213Z,4.35
2022-11-05T08:12:42.049Z,5.15
2022-11-05T08:15:11.013Z,6.07
2022-11-05T08:17:39.109Z,7.03
2022-11-05T08:20:08.325Z,4.53
2022-11-05T08:22:42.261Z,4.65
2022-11-05T08:25:14.767Z,7.05
2022-11-05T08:27:42.849Z,5.85
2022-11-05T08:30:11.929Z,4.88
2022-11-05T08:32:39.726Z,3.47
2022-11-05T08:35:15.205Z,5.63
2022-11-05T08:37:43.105Z,4.10
2022-11-05T08:40:13.385Z,7.65
2022-11-05T08:42:42.658Z,4.47
2022-11-05T08:45:11.136Z,5.93
2022-11-05T08:47:38.807Z,8.57
2022-11-05T08:50:07.354Z,7.75
2022-11-05T08:52:35.285Z,6.35
2022-11-05T08:55:03.270Z,4.25
2022-11-05T08:57:32.514Z,6.80
2022-11-05T09:00:03.388Z,6.28
2022-11-05T09:02:31.479Z,8.05
2022-11-05T09:05:02.299Z,5.25
2022-11-05T09:07:34.843Z,6.57
2022-11-05T09:10:05.073Z,6.55
2022-11-05T09:12:34.436Z,10.65
2022-11-05T09:15:06.047Z,8.70
2022-11-05T09:17:33.989Z,5.78
2022-11-05T09:20:03.268Z,5.32
2022-11-05T09:22:37.950Z,6.95
2022-11-05T09:25:10.736Z,8.65
2022-11-05T09:27:43.647Z,7.05
2022-11-05T09:30:15.481Z,7.03
2022-11-05T09:32:43.340Z,12.83
2022-11-05T09:35:12.140Z,6.28
2022-11-05T09:37:40.400Z,8.18
2022-11-05T09:40:10.169Z,19.40
2022-11-05T09:42:43.521Z,8.15
2022-11-05T09:45:20.791Z,6.95
2022-11-05T09:47:52.425Z,10.05
2022-11-05T09:50:31.528Z,7.53
2022-11-05T09:52:59.627Z,7.68
2022-11-05T09:55:34.530Z,7.15
2022-11-05T09:58:07.308Z,10.00
2022-11-05T10:00:36.607Z,16.27
2022-11-05T10:03:07.957Z,7.53
2022-11-05T10:05:38.582Z,8.23
2022-11-05T10:08:15.144Z,10.68
2022-11-05T10:10:45.686Z,8.75
2022-11-05T10:13:24.756Z,9.32
2022-11-05T10:16:01.697Z,11.35
2022-11-05T10:18:34.487Z,7.72
2022-11-05T10:21:03.307Z,9.23
2022-11-05T10:23:31.686Z,11.93
2022-11-05T10:26:04.227Z,10.07
2022-11-05T10:28:35.839Z,9.48
2022-11-05T10:31:06.124Z,8.50
2022-11-05T10:33:40.791Z,9.43
2022-11-05T10:36:12.455Z,9.52
2022-11-05T10:38:40.208Z,10.60
2022-11-05T10:41:27.061Z,10.52
2022-11-05T10:44:03.510Z,10.52
2022-11-05T10:46:37.323Z,12.35
2022-11-05T10:49:18.881Z,12.93
2022-11-05T10:51:48.317Z,16.95
2022-11-05T10:54:20.666Z,13.65
2022-11-05T10:56:48.834Z,12.45
2022-11-05T10:59:26.179Z,19.50
2022-11-05T11:02:01.253Z,14.07
2022-11-05T11:04:37.408Z,13.48
2022-11-05T11:07:06.106Z,16.25
2022-11-05T11:09:37.908Z,19.02
2022-11-05T11:12:08.375Z,16.77
2022-11-05T11:14:37.561Z,12.43
2022-11-05T11:17:27.051Z,13.25
2022-11-05T11:20:21.041Z,11.18
2022-11-05T11:23:04.013Z,13.98
2022-11-05T11:25:36.931Z,15.27
2022-11-05T11:28:07.225Z,16.15
2022-11-05T11:30:36.557Z,15.70
2022-11-05T11:33:10.508Z,13.23
2022-11-05T11:35:39.934Z,17.42
2022-11-05T11:38:08.369Z,11.45
2022-11-05T11:40:41.287Z,15.18
2022-11-05T11:43:21.875Z,14.20
2022-11-05T11:45:53.240Z,16.95
2022-11-05T11:48:27.562Z,15.98
2022-11-05T11:50:56.255Z,13.77
2022-11-05T11:53:29.432Z,15.25
2022-11-05T11:56:01.213Z,18.25
2022-11-05T11:58:48.733Z,13.37
2022-11-05T12:01:45.251Z,13.88
2022-11-05T12:04:50.071Z,11.05
2022-11-05T12:07:35.362Z,10.40
2022-11-05T12:10:23.911Z,13.10
2022-11-05T12:13:23.696Z,7.82
2022-11-05T12:16:01.038Z,8.70
2022-11-05T12:18:39.960Z,7.72
2022-11-05T12:21:48.071Z,6.93
2022-11-05T12:24:34.499Z,12.45
2022-11-05T12:27:16.452Z,5.93
2022-11-05T12:29:59.197Z,8.23
2022-11-05T12:32:53.874Z,6.90
2022-11-05T12:35:47.067Z,6.20
2022-11-05T12:38:30.046Z,7.88
2022-11-05T12:41:16.206Z,7.70
2022-11-05T12:43:57.809Z,5.88
2022-11-05T12:46:37.291Z,6.05
2022-11-05T12:49:46.930Z,6.68
2022-11-05T12:53:05.741Z,6.75
2022-11-05T12:56:31.840Z,4.65
2022-11-05T12:59:05.903Z,9.05
2022-11-05T13:02:01.699Z,4.82
2022-11-05T13:04:37.599Z,9.93
2022-11-05T13:07:23.440Z,4.65
2022-11-05T13:10:04.136Z,6.43
2022-11-05T13:12:44.931Z,8.05
2022-11-05T13:15:28.410Z,6.18
2022-11-05T13:18:00.984Z,11.90
2022-11-05T13:23:16.072Z,9.10
2022-11-05T13:26:00.584Z,6.60
2022-11-05T13:28:41.173Z,7.20
2022-11-05T13:31:13.680Z,9.15
2022-11-05T13:36:41.476Z,9.32
2022-11-05T13:39:21.393Z,4.57
2022-11-05T13:42:15.523Z,7.53
2022-11-05T13:45:14.666Z,8.88
2022-11-05T13:48:06.954Z,7.80
2022-11-05T13:51:01.437Z,5.57
2022-11-05T13:53:56.257Z,5.88
2022-11-05T13:56:44.734Z,5.97
2022-11-05T13:59:40.328Z,4.18
2022-11-05T14:02:23.022Z,8.88
2022-11-05T14:07:51.149Z,4.28
2022-11-05T14:10:40.584Z,5.63
2022-11-05T14:13:21.886Z,5.85
2022-11-05T14:16:05.554Z,6.20
2022-11-05T14:18:45.288Z,6.65
2022-11-05T14:21:48.359Z,9.13
2022-11-05T14:24:46.105Z,6.75
2022-11-05T14:27:45.969Z,8.02
2022-11-05T14:30:52.427Z,5.35
2022-11-05T14:33:50.197Z,6.60
2022-11-05T14:36:31.688Z,10.20
2022-11-05T14:39:15.270Z,10.70
2022-11-05T14:42:02.319Z,20.75
2022-11-05T14:44:37.709Z,8.85
2022-11-05T14:47:20.626Z,6.82
2022-11-05T14:52:24.032Z,6.55
2022-11-05T14:54:55.018Z,5.55
2022-11-05T14:57:56.234Z,4.68
2022-11-05T15:00:48.159Z,4.85
2022-11-05T15:03:39.712Z,6.90
2022-11-05T15:10:02.349Z,8.07
2022-11-05T15:12:37.799Z,5.63
2022-11-05T15:15:22.073Z,4.47
2022-11-05T15:18:02.061Z,11.02
2022-11-05T15:20:39.929Z,8.82
2022-11-05T15:23:15.533Z,8.95
2022-11-05T15:25:53.761Z,12.77
2022-11-05T15:28:32.738Z,9.80
2022-11-05T15:31:02.384Z,9.88
2022-11-05T15:33:49.341Z,9.65
2022-11-05T15:36:26.931Z,9.23
2022-11-05T15:39:28.551Z,11.20
2022-11-05T15:41:52.776Z,13.68
2022-11-05T15:44:27.133Z,22.42
2022-11-05T15:47:28.421Z,10.93
2022-11-05T15:50:01.406Z,11.73
2022-11-05T15:52:44.152Z,13.25
2022-11-05T15:55:23.855Z,15.80
2022-11-05T15:58:00.884Z,10.40
2022-11-05T16:00:48.746Z,8.23
2022-11-05T16:03:24.667Z,10.73
2022-11-05T16:05:59.020Z,11.70
2022-11-05T16:08:37.100Z,10.65
2022-11-05T16:11:06.734Z,15.18
2022-11-05T16:13:36.656Z,25.08
2022-11-05T16:16:07.395Z,15.02
2022-11-05T16:18:40.393Z,17.95
2022-11-05T16:21:10.788Z,14.82
2022-11-05T16:23:44.699Z,9.43
2022-11-05T16:29:32.490Z,18.70
2022-11-05T16:32:04.242Z,21.30
2022-11-05T16:34:36.873Z,13.88
2022-11-05T16:37:08.578Z,14.60
2022-11-05T16:39:37.053Z,21.13
2022-11-05T16:42:39.493Z,9.77
2022-11-05T16:45:13.491Z,9.20
2022-11-05T16:47:42.081Z,7.45
2022-11-05T16:50:25.616Z,8.63
2022-11-05T16:52:58.330Z,8.25
2022-11-05T16:57:56.459Z,11.70
2022-11-05T17:00:27.733Z,11.80
2022-11-05T17:02:58.351Z,10.85
2022-11-05T17:05:28.779Z,9.80
2022-11-05T17:07:57.416Z,19.42
2022-11-05T17:10:27.988Z,12.93
2022-11-05T17:12:57.807Z,21.17
2022-11-05T17:15:29.325Z,24.92
2022-11-05T17:17:58.003Z,15.52
2022-11-05T17:20:36.474Z,20.63
2022-11-05T17:23:09.347Z,15.77
2022-11-05T17:25:37.466Z,18.65
2022-11-05T17:28:07.366Z,16.00
2022-11-05T17:30:35.270Z,15.35
2022-11-05T17:33:03.302Z,27.27
2022-11-05T17:35:31.253Z,24.75
2022-11-05T17:37:59.005Z,20.00
2022-11-05T17:40:28.429Z,16.38
2022-11-05T17:42:56.406Z,57.65
2022-11-05T17:45:25.620Z,28.65
2022-11-05T17:47:53.814Z,21.05
2022-11-05T17:50:21.941Z,13.30
2022-11-05T17:52:49.701Z,17.98
2022-11-05T17:55:17.761Z,20.15
2022-11-05T17:57:47.520Z,22.77
2022-11-05T18:00:17.663Z,16.98
2022-11-05T18:03:13.160Z,12.80
2022-11-05T18:05:41.614Z,12.60
2022-11-05T18:08:10.241Z,15.80
2022-11-05T18:10:38.864Z,16.60
2022-11-05T18:13:08.848Z,11.40
2022-11-05T18:15:40.849Z,16.13
2022-11-05T18:18:13.271Z,12.63
2022-11-05T18:20:43.121Z,13.88
2022-11-05T18:23:11.304Z,16.85
2022-11-05T18:25:41.240Z,16.00
2022-11-05T18:28:10.550Z,20.05
2022-11-05T18:30:41.036Z,19.33
2022-11-05T18:33:09.524Z,18.60
2022-11-05T18:35:43.523Z,21.02
2022-11-05T18:38:11.664Z,17.08
2022-11-05T18:40:42.476Z,16.50
2022-11-05T18:43:11.068Z,14.38
2022-11-05T18:45:41.137Z,11.93
2022-11-05T18:48:09.166Z,8.88
2022-11-05T18:50:37.137Z,9.75
2022-11-05T18:53:06.245Z,11.75
2022-11-05T18:55:34.480Z,12.85
2022-11-05T18:58:02.305Z,11.40
2022-11-05T19:00:32.148Z,13.98
2022-11-05T19:03:00.113Z,14.63
2022-11-05T19:05:30.815Z,11.82
2022-11-05T19:08:00.870Z,14.93
2022-11-05T19:10:30.177Z,12.40
2022-11-05T19:12:59.668Z,10.20
2022-11-05T19:15:29.887Z,10.77
2022-11-05T19:17:58.706Z,13.80
2022-11-05T19:20:26.437Z,11.70
2022-11-05T19:22:54.375Z,13.45
2022-11-05T19:25:22.137Z,9.70
2022-11-05T19:27:51.567Z,11.30
2022-11-05T19:30:19.766Z,12.60
2022-11-05T19:32:49.844Z,9.93
2022-11-05T19:35:19.827Z,11.98
2022-11-05T19:37:47.645Z,10.18
2022-11-05T19:40:15.412Z,11.07
2022-11-05T19:43:14.578Z,15.02
2022-11-05T19:45:45.041Z,15.52
2022-11-05T19:48:18.805Z,15.35
2022-11-05T19:50:47.729Z,19.85
2022-11-05T19:53:15.543Z,18.52
2022-11-05T19:55:45.985Z,37.67
2022-11-05T19:58:15.739Z,42.88
2022-11-05T20:00:43.621Z,34.47
2022-11-05T20:03:15.755Z,37.65
2022-11-05T20:05:45.314Z,21.33
2022-11-05T20:08:13.518Z,18.38
2022-11-05T20:10:41.739Z,17.35
2022-11-05T20:13:09.562Z,15.18
2022-11-05T20:15:40.016Z,13.98
2022-11-05T20:18:08.380Z,14.23
2022-11-05T20:20:36.680Z,14.48
2022-11-05T20:23:04.435Z,14.35
2022-11-05T20:25:32.372Z,12.35
2022-11-05T20:28:00.210Z,15.18
2022-11-05T20:30:29.849Z,17.13
2022-11-05T20:32:59.383Z,20.13
2022-11-05T20:35:27.226Z,25.17
2022-11-05T20:37:55.062Z,23.13
2022-11-05T20:40:23.111Z,20.67
2022-11-05T20:42:50.860Z,18.05
2022-11-05T20:45:18.785Z,18.08
2022-11-05T20:47:46.632Z,22.35
2022-11-05T20:50:16.038Z,26.77
2022-11-05T20:52:43.842Z,25.73
2022-11-05T20:55:11.759Z,22.95
2022-11-05T20:57:41.567Z,18.90
2022-11-05T21:00:14.825Z,19.80
2022-11-05T21:02:43.031Z,12.98
2022-11-05T21:05:13.035Z,13.38
2022-11-05T21:07:42.712Z,13.45
2022-11-05T21:10:10.928Z,15.32
2022-11-05T21:12:38.790Z,12.88
2022-11-05T21:15:09.055Z,14.18
2022-11-05T21:17:37.574Z,10.35
2022-11-05T21:20:06.691Z,11.30
2022-11-05T21:22:37.114Z,10.25
2022-11-05T21:25:09.500Z,10.10
2022-11-05T21:27:43.430Z,14.73
2022-11-05T21:30:12.792Z,13.27
2022-11-05T21:32:47.033Z,10.93
2022-11-05T21:35:17.119Z,11.88
2022-11-05T21:37:44.901Z,13.13
2022-11-05T21:40:17.582Z,13.98
2022-11-05T21:42:45.414Z,15.95
2022-11-05T21:45:13.338Z,13.63
2022-11-05T21:47:41.470Z,13.93
2022-11-05T21:50:09.986Z,14.77
2022-11-05T21:52:55.354Z,13.77
2022-11-05T21:55:38.491Z,16.63
2022-11-05T22:00:56.632Z,11.75
2022-11-05T22:03:27.380Z,8.98
2022-11-05T22:05:57.143Z,16.90
2022-11-05T22:08:24.856Z,13.73
2022-11-05T22:10:54.036Z,14.27
2022-11-05T22:13:24.287Z,13.50
2022-11-05T22:15:58.009Z,16.33
2022-11-05T22:18:25.850Z,11.23
2022-11-05T22:20:53.805Z,12.90
2022-11-05T22:23:21.586Z,14.55
2022-11-05T22:25:49.379Z,11.10
2022-11-05T22:28:18.585Z,13.10
2022-11-05T22:30:46.381Z,12.57
2022-11-05T22:33:14.112Z,12.15
2022-11-05T22:35:43.672Z,16.02
2022-11-05T22:38:12.793Z,10.95
2022-11-05T22:40:41.143Z,14.07
2022-11-05T22:43:16.748Z,11.15
2022-11-05T22:45:49.597Z,11.15
2022-11-05T22:50:45.129Z,12.05
2022-11-05T22:53:12.892Z,12.90
2022-11-05T22:55:41.227Z,11.80
2022-11-05T22:58:09.107Z,9.82
2022-11-05T23:00:38.555Z,10.65
2022-11-05T23:03:10.929Z,10.50
2022-11-05T23:05:40.226Z,9.98
2022-11-05T23:08:25.199Z,11.02
2022-11-05T23:11:11.124Z,11.00
2022-11-05T23:13:39.047Z,11.00
2022-11-05T23:16:24.676Z,13.30
2022-11-05T23:19:11.566Z,22.75
2022-11-05T23:21:59.326Z,15.70
2022-11-05T23:24:27.106Z,13.82
2022-11-05T23:26:54.950Z,12.98
2022-11-05T23:29:24.668Z,11.25
2022-11-05T23:32:10.059Z,14.90
2022-11-05T23:34:39.484Z,13.48
2022-11-05T23:37:24.582Z,15.25
2022-11-05T23:39:52.312Z,13.52
2022-11-05T23:42:37.726Z,14.27
2022-11-05T23:45:24.470Z,9.70
2022-11-05T23:48:10.220Z,9.15
2022-11-05T23:50:40.481Z,7.65
2022-11-05T23:53:08.952Z,8.05
2022-11-05T23:55:37.109Z,9.20
2022-11-05T23:58:05.000Z,8.88
